createdAt,value
2023-08-08T00:03:07.637Z,15.72
2023-08-08T00:07:11.648Z,15.68
2023-08-08T00:11:15.053Z,15.67
2023-08-08T00:15:18.547Z,15.64
2023-08-08T00:19:21.863Z,15.58
2023-08-08T00:23:25.422Z,15.49
2023-08-08T00:27:29.108Z,15.34
2023-08-08T00:31:32.719Z,15.23
2023-08-08T00:35:36.305Z,15.20
2023-08-08T00:39:40.599Z,15.09
2023-08-08T00:43:44.946Z,15.02
2023-08-08T00:47:48.374Z,14.91
2023-08-08T00:51:52.121Z,14.80
2023-08-08T00:55:56.289Z,14.76
2023-08-08T00:59:59.795Z,14.69
2023-08-08T01:04:03.398Z,14.64
2023-08-08T01:08:08.798Z,14.60
2023-08-08T01:12:15.943Z,14.52
2023-08-08T01:16:21.750Z,14.48
2023-08-08T01:20:26.133Z,14.46
2023-08-08T01:24:31.552Z,14.39
2023-08-08T01:28:37.113Z,14.30
2023-08-08T01:32:40.921Z,14.29
2023-08-08T01:36:54.095Z,14.25
2023-08-08T01:40:59.318Z,14.24
2023-08-08T01:45:03.888Z,14.16
2023-08-08T01:49:07.691Z,14.10
2023-08-08T01:53:11.817Z,14.08
2023-08-08T01:57:15.833Z,14.02
2023-08-08T02:01:20.943Z,14.00
2023-08-08T02:05:25.310Z,13.96
2023-08-08T02:09:28.918Z,13.95
2023-08-08T02:13:33.459Z,13.95
2023-08-08T02:17:39.367Z,13.92
2023-08-08T02:21:43.547Z,13.89
2023-08-08T02:25:47.248Z,13.86
2023-08-08T02:29:50.857Z,13.82
2023-08-08T02:33:54.542Z,13.87
2023-08-08T02:37:58.206Z,13.92
2023-08-08T02:42:01.755Z,13.89
2023-08-08T02:46:05.519Z,13.86
2023-08-08T02:50:09.522Z,13.79
2023-08-08T02:54:13.207Z,13.81
2023-08-08T02:58:16.625Z,13.78
2023-08-08T03:02:20.263Z,13.77
2023-08-08T03:06:23.899Z,13.74
2023-08-08T03:10:27.488Z,13.71
2023-08-08T03:14:36.153Z,13.68
2023-08-08T03:18:41.400Z,13.65
2023-08-08T03:22:45.591Z,13.61
2023-08-08T03:26:50.569Z,13.56
2023-08-08T03:30:55.326Z,13.58
2023-08-08T03:35:00.295Z,13.60
2023-08-08T03:39:04.920Z,13.61
2023-08-08T03:43:11.600Z,13.65
2023-08-08T03:47:19.837Z,13.70
2023-08-08T03:51:24.218Z,13.71
2023-08-08T03:55:27.982Z,13.78
2023-08-08T03:59:32.114Z,13.80
2023-08-08T04:03:35.718Z,13.85
2023-08-08T04:12:08.990Z,14.03
2023-08-08T04:16:17.855Z,14.18
2023-08-08T04:20:22.114Z,14.43
2023-08-08T04:24:27.670Z,14.84
2023-08-08T04:28:30.998Z,15.56
2023-08-08T04:32:34.039Z,16.66
2023-08-08T04:36:37.007Z,17.62
2023-08-08T04:40:40.030Z,18.29
2023-08-08T04:44:44.221Z,18.78
2023-08-08T04:48:47.168Z,19.28
2023-08-08T04:52:50.246Z,19.49
2023-08-08T04:56:53.407Z,19.64
2023-08-08T05:01:23.702Z,19.90
2023-08-08T05:05:26.791Z,20.18
2023-08-08T05:09:29.771Z,20.33
2023-08-08T05:13:32.804Z,20.57
2023-08-08T05:17:35.761Z,20.51
2023-08-08T05:21:46.347Z,20.41
2023-08-08T05:25:49.279Z,20.32
2023-08-08T05:29:52.207Z,20.29
2023-08-08T05:33:55.176Z,20.47
2023-08-08T05:37:58.094Z,20.79
2023-08-08T05:42:01.102Z,20.97
2023-08-08T05:46:04.045Z,21.06
2023-08-08T05:50:08.078Z,20.94
2023-08-08T05:54:12.674Z,20.99
2023-08-08T05:58:20.546Z,20.97
2023-08-08T06:02:23.656Z,20.94
2023-08-08T06:06:27.628Z,21.02
2023-08-08T06:10:30.625Z,20.87
2023-08-08T06:15:00.530Z,20.87
2023-08-08T06:19:04.325Z,20.91
2023-08-08T06:23:07.252Z,20.74
2023-08-08T06:27:14.583Z,20.83
2023-08-08T06:31:17.616Z,20.83
2023-08-08T06:35:26.932Z,20.88
2023-08-08T06:39:29.944Z,20.90
2023-08-08T06:43:33.076Z,21.03
2023-08-08T06:47:36.265Z,21.01
2023-08-08T06:51:39.299Z,21.12
2023-08-08T06:55:42.514Z,21.20
2023-08-08T06:59:51.787Z,20.94
2023-08-08T07:03:55.325Z,20.83
2023-08-08T07:07:58.374Z,20.96
2023-08-08T07:12:03.732Z,21.14
2023-08-08T07:16:07.023Z,21.13
2023-08-08T07:20:15.024Z,21.01
2023-08-08T07:24:18.344Z,20.94
2023-08-08T07:28:24.260Z,21.04
2023-08-08T07:32:27.229Z,20.87
2023-08-08T07:36:30.426Z,20.81
2023-08-08T07:40:33.558Z,20.70
2023-08-08T07:44:39.329Z,20.18
2023-08-08T07:48:42.269Z,19.94
2023-08-08T07:52:45.376Z,19.49
2023-08-08T07:57:13.311Z,19.33
2023-08-08T08:01:16.588Z,19.25
2023-08-08T08:05:20.027Z,19.29
2023-08-08T08:09:24.084Z,19.36
2023-08-08T08:13:27.289Z,19.32
2023-08-08T08:17:30.525Z,19.27
2023-08-08T08:21:33.567Z,19.41
2023-08-08T08:25:36.873Z,19.49
2023-08-08T08:29:40.697Z,19.52
2023-08-08T08:33:43.790Z,19.49
2023-08-08T08:37:46.781Z,19.56
2023-08-08T08:41:53.060Z,19.82
2023-08-08T08:45:56.630Z,20.04
2023-08-08T08:50:00.300Z,20.04
2023-08-08T08:54:04.150Z,19.88
2023-08-08T08:58:07.463Z,19.72
2023-08-08T09:02:12.144Z,19.65
2023-08-08T09:06:17.739Z,19.69
2023-08-08T09:10:21.311Z,19.75
2023-08-08T09:14:26.736Z,19.76
2023-08-08T09:18:29.680Z,19.60
2023-08-08T09:22:34.991Z,19.54
2023-08-08T09:26:40.115Z,19.49
2023-08-08T09:30:44.295Z,19.43
2023-08-08T09:34:48.540Z,19.46
2023-08-08T09:38:51.810Z,19.38
2023-08-08T09:42:58.113Z,19.41
2023-08-08T09:47:01.599Z,19.53
2023-08-08T09:51:05.908Z,19.65
2023-08-08T09:55:10.924Z,19.76
2023-08-08T09:59:30.333Z,19.88
2023-08-08T10:03:34.397Z,20.07
2023-08-08T10:07:37.641Z,20.17
2023-08-08T10:11:43.781Z,20.30
2023-08-08T10:15:46.753Z,20.51
2023-08-08T10:19:56.440Z,20.61
2023-08-08T10:24:04.098Z,20.39
2023-08-08T10:28:25.420Z,20.34
2023-08-08T10:32:29.797Z,20.27
2023-08-08T10:36:53.597Z,20.18
2023-08-08T10:40:59.283Z,20.14
2023-08-08T10:45:04.409Z,19.94
2023-08-08T10:49:07.591Z,20.00
2023-08-08T10:53:11.500Z,20.09
2023-08-08T10:57:31.952Z,20.15
2023-08-08T11:01:35.802Z,20.19
2023-08-08T11:05:39.985Z,20.41
2023-08-08T11:09:44.233Z,20.69
2023-08-08T11:13:47.208Z,20.89
2023-08-08T11:18:18.961Z,21.00
2023-08-08T11:22:25.245Z,21.04
2023-08-08T11:26:33.286Z,21.17
2023-08-08T11:30:39.858Z,21.35
2023-08-08T11:34:42.890Z,21.56
2023-08-08T11:38:46.857Z,21.57
2023-08-08T11:42:51.654Z,21.52
2023-08-08T11:46:55.051Z,21.61
2023-08-08T11:50:59.762Z,21.37
2023-08-08T11:55:11.725Z,21.25
2023-08-08T11:59:15.033Z,21.28
2023-08-08T12:03:20.161Z,21.26
2023-08-08T12:07:24.410Z,21.04
2023-08-08T12:11:28.381Z,20.86
2023-08-08T12:15:36.248Z,20.78
2023-08-08T12:19:46.488Z,20.77
2023-08-08T12:23:49.606Z,20.88
2023-08-08T12:27:52.893Z,20.82
2023-08-08T12:31:56.981Z,20.97
2023-08-08T12:35:59.933Z,21.38
2023-08-08T12:40:05.362Z,21.72
2023-08-08T12:44:09.282Z,22.01
2023-08-08T12:48:13.278Z,22.19
2023-08-08T12:52:16.628Z,22.11
2023-08-08T12:56:19.658Z,22.04
2023-08-08T13:00:23.057Z,21.96
2023-08-08T13:04:26.500Z,21.93
2023-08-08T13:08:29.682Z,21.88
2023-08-08T13:12:32.705Z,21.78
2023-08-08T13:16:35.719Z,21.79
2023-08-08T13:20:45.887Z,22.08
2023-08-08T13:24:49.344Z,22.45
2023-08-08T13:28:52.788Z,22.32
2023-08-08T13:32:56.044Z,22.11
2023-08-08T13:36:59.832Z,22.01
2023-08-08T13:41:03.705Z,21.88
2023-08-08T13:45:08.866Z,22.14
2023-08-08T13:49:13.404Z,22.43
2023-08-08T13:53:17.942Z,22.39
2023-08-08T13:57:22.124Z,22.36
2023-08-08T14:01:26.409Z,22.51
2023-08-08T14:05:32.752Z,22.67
2023-08-08T14:09:37.807Z,22.66
2023-08-08T14:13:42.042Z,22.58
2023-08-08T14:17:47.157Z,22.61
2023-08-08T14:21:51.607Z,22.89
2023-08-08T14:25:55.327Z,23.00
2023-08-08T14:29:59.044Z,23.22
2023-08-08T14:34:02.376Z,23.43
2023-08-08T14:38:05.682Z,23.64
2023-08-08T14:42:09.651Z,23.59
2023-08-08T14:46:13.109Z,23.23
2023-08-08T14:50:17.601Z,22.85
2023-08-08T14:54:21.319Z,22.65
2023-08-08T14:58:25.486Z,22.52
2023-08-08T15:02:30.570Z,21.89
2023-08-08T15:06:33.985Z,21.06
2023-08-08T15:10:37.363Z,20.58
2023-08-08T15:14:40.936Z,20.38
2023-08-08T15:18:44.322Z,20.21
2023-08-08T15:22:47.677Z,20.19
2023-08-08T15:26:51.251Z,20.14
2023-08-08T15:30:54.629Z,20.26
2023-08-08T15:34:59.634Z,20.39
2023-08-08T15:39:36.159Z,20.60
2023-08-08T15:43:39.825Z,20.72
2023-08-08T15:47:44.405Z,20.78
2023-08-08T15:51:50.295Z,21.10
2023-08-08T15:55:54.181Z,21.27
2023-08-08T15:59:57.616Z,21.50
2023-08-08T16:04:01.173Z,21.66
2023-08-08T16:08:07.917Z,21.71
2023-08-08T16:12:11.680Z,21.72
2023-08-08T16:16:15.340Z,21.82
2023-08-08T16:20:19.795Z,21.88
2023-08-08T16:24:23.812Z,21.90
2023-08-08T16:28:27.515Z,21.91
2023-08-08T16:32:31.432Z,21.83
2023-08-08T16:36:36.974Z,21.76
2023-08-08T16:40:42.328Z,21.62
2023-08-08T16:44:57.096Z,21.53
2023-08-08T16:49:04.005Z,21.49
2023-08-08T16:53:08.283Z,21.47
2023-08-08T16:57:13.139Z,21.43
2023-08-08T17:01:17.505Z,21.36
2023-08-08T17:05:26.642Z,21.30
2023-08-08T17:09:37.874Z,21.20
2023-08-08T17:13:41.387Z,21.07
2023-08-08T17:17:45.398Z,20.94
2023-08-08T17:21:50.753Z,20.72
2023-08-08T17:25:55.926Z,20.57
2023-08-08T17:30:02.506Z,20.35
2023-08-08T17:34:07.995Z,20.12
2023-08-08T17:38:11.560Z,19.88
2023-08-08T17:42:14.834Z,19.73
2023-08-08T17:46:18.357Z,19.55
2023-08-08T17:50:21.883Z,19.34
2023-08-08T17:54:25.189Z,19.16
2023-08-08T17:58:28.348Z,19.05
2023-08-08T18:02:32.010Z,18.84
2023-08-08T18:06:35.608Z,18.37
2023-08-08T18:10:38.830Z,17.90
2023-08-08T18:14:42.115Z,17.49
2023-08-08T18:18:45.333Z,17.25
2023-08-08T18:22:49.087Z,17.13
2023-08-08T18:26:53.434Z,17.12
2023-08-08T18:30:57.653Z,17.10
2023-08-08T18:35:00.906Z,16.97
2023-08-08T18:39:04.633Z,16.83
2023-08-08T18:43:10.182Z,16.72
2023-08-08T18:47:15.666Z,16.65
2023-08-08T18:51:24.407Z,16.56
2023-08-08T18:55:29.468Z,16.49
2023-08-08T18:59:32.940Z,16.54
2023-08-08T19:03:37.217Z,16.57
2023-08-08T19:07:41.126Z,16.60
2023-08-08T19:11:45.081Z,16.64
2023-08-08T19:16:01.196Z,16.67
2023-08-08T19:20:07.071Z,16.68
2023-08-08T19:24:11.800Z,16.73
2023-08-08T19:28:15.229Z,16.81
2023-08-08T19:32:21.572Z,16.86
2023-08-08T19:36:39.458Z,16.87
2023-08-08T19:44:53.812Z,16.91
2023-08-08T19:48:57.152Z,16.94
2023-08-08T19:53:00.425Z,16.97
2023-08-08T19:57:04.613Z,16.97
2023-08-08T20:01:08.187Z,16.98
2023-08-08T20:05:13.890Z,17.00
2023-08-08T20:09:18.415Z,16.97
2023-08-08T20:13:27.266Z,16.94
2023-08-08T20:17:31.624Z,16.93
2023-08-08T20:21:38.668Z,16.95
2023-08-08T20:25:44.382Z,16.97
2023-08-08T20:29:51.057Z,16.95
2023-08-08T20:33:57.935Z,16.95
2023-08-08T20:38:03.001Z,16.95
2023-08-08T20:42:21.224Z,16.93
2023-08-08T20:46:26.316Z,16.92
2023-08-08T20:50:31.912Z,16.85
2023-08-08T20:54:41.449Z,16.84
2023-08-08T20:58:44.867Z,16.80
2023-08-08T21:02:51.767Z,16.79
2023-08-08T21:06:56.197Z,16.79
2023-08-08T21:11:02.359Z,16.75
2023-08-08T21:15:06.642Z,16.73
2023-08-08T21:19:11.406Z,16.75
2023-08-08T21:23:15.786Z,16.76
2023-08-08T21:27:22.660Z,16.75
2023-08-08T21:31:26.793Z,16.72
2023-08-08T21:35:32.759Z,16.73
2023-08-08T21:39:36.414Z,16.73
2023-08-08T21:43:42.283Z,16.74
2023-08-08T21:47:45.432Z,16.75
2023-08-08T21:51:48.815Z,16.74
2023-08-08T21:55:52.248Z,16.74
2023-08-08T21:59:55.503Z,16.70
2023-08-08T22:03:58.771Z,16.66
2023-08-08T22:08:02.476Z,16.64
2023-08-08T22:12:06.048Z,16.63
2023-08-08T22:16:09.395Z,16.60
2023-08-08T22:20:12.656Z,16.57
2023-08-08T22:24:16.075Z,16.51
2023-08-08T22:28:20.338Z,16.45
2023-08-08T22:32:23.706Z,16.40
2023-08-08T22:36:27.563Z,16.39
2023-08-08T22:40:30.810Z,16.37
2023-08-08T22:44:34.829Z,16.35
2023-08-08T22:48:38.806Z,16.34
2023-08-08T22:52:43.445Z,16.34
2023-08-08T22:56:46.721Z,16.36
2023-08-08T23:00:50.616Z,16.39
2023-08-08T23:04:54.051Z,16.48
2023-08-08T23:08:57.820Z,16.52
2023-08-08T23:13:01.654Z,16.57
2023-08-08T23:17:05.476Z,16.60
2023-08-08T23:21:09.425Z,16.62
2023-08-08T23:25:13.379Z,16.64
2023-08-08T23:29:16.765Z,16.63
2023-08-08T23:33:19.939Z,16.64
2023-08-08T23:37:23.199Z,16.62
2023-08-08T23:41:26.670Z,16.63
2023-08-08T23:45:30.039Z,16.68
2023-08-08T23:49:33.362Z,16.72
2023-08-08T23:53:36.890Z,16.75
2023-08-08T23:57:40.168Z,16.78
